sensor_id;sensor_type;location;lat;lon;timestamp;temperature;humidity
36132;DHT22;22185;48.738;9.324;2022-08-11T00:00:50;18.70;99.90
36132;DHT22;22185;48.738;9.324;2022-08-11T00:02:53;18.70;99.90
36132;DHT22;22185;48.738;9.324;2022-08-11T00:04:56;18.70;99.90
36132;DHT22;22185;48.738;9.324;2022-08-11T00:07:03;18.70;99.90
36132;DHT22;22185;48.738;9.324;2022-08-11T00:09:16;18.60;99.90
36132;DHT22;22185;48.738;9.324;2022-08-11T00:11:19;18.70;99.90
36132;DHT22;22185;48.738;9.324;2022-08-11T00:13:22;18.60;99.90
36132;DHT22;22185;48.738;9.324;2022-08-11T00:15:42;18.60;99.90
36132;DHT22;22185;48.738;9.324;2022-08-11T00:17:45;18.50;99.90
36132;DHT22;22185;48.738;9.324;2022-08-11T00:19:49;18.40;99.90
36132;DHT22;22185;48.738;9.324;2022-08-11T00:22:18;18.40;99.90
36132;DHT22;22185;48.738;9.324;2022-08-11T00:24:22;18.40;99.90
36132;DHT22;22185;48.738;9.324;2022-08-11T00:26:26;18.40;99.90
36132;DHT22;22185;48.738;9.324;2022-08-11T00:28:30;18.40;99.90
36132;DHT22;22185;48.738;9.324;2022-08-11T00:30:39;18.40;99.90
36132;DHT22;22185;48.738;9.324;2022-08-11T00:32:43;18.40;99.90
36132;DHT22;22185;48.738;9.324;2022-08-11T00:34:46;18.30;99.90
36132;DHT22;22185;48.738;9.324;2022-08-11T00:37:08;18.30;99.90
36132;DHT22;22185;48.738;9.324;2022-08-11T00:39:11;18.30;99.90
36132;DHT22;22185;48.738;9.324;2022-08-11T00:45:39;18.20;99.90
36132;DHT22;22185;48.738;9.324;2022-08-11T00:50:28;18.00;99.90
36132;DHT22;22185;48.738;9.324;2022-08-11T00:53:04;18.00;99.90
36132;DHT22;22185;48.738;9.324;2022-08-11T01:00:11;17.90;99.90
36132;DHT22;22185;48.738;9.324;2022-08-11T01:02:38;17.90;99.90
36132;DHT22;22185;48.738;9.324;2022-08-11T01:12:00;17.70;99.90
36132;DHT22;22185;48.738;9.324;2022-08-11T01:21:45;17.60;99.90
36132;DHT22;22185;48.738;9.324;2022-08-11T01:46:53;17.40;99.90
36132;DHT22;22185;48.738;9.324;2022-08-11T01:49:23;17.30;99.90
36132;DHT22;22185;48.738;9.324;2022-08-11T01:52:10;17.10;99.90
36132;DHT22;22185;48.738;9.324;2022-08-11T01:54:23;17.10;99.90
36132;DHT22;22185;48.738;9.324;2022-08-11T02:08:48;17.10;99.90
36132;DHT22;22185;48.738;9.324;2022-08-11T02:18:27;16.80;99.90
36132;DHT22;22185;48.738;9.324;2022-08-11T02:21:02;17.00;99.90
36132;DHT22;22185;48.738;9.324;2022-08-11T02:26:52;16.80;99.90
36132;DHT22;22185;48.738;9.324;2022-08-11T02:34:55;16.70;99.90
36132;DHT22;22185;48.738;9.324;2022-08-11T02:39:45;16.50;99.90
36132;DHT22;22185;48.738;9.324;2022-08-11T02:43:00;16.60;99.90
36132;DHT22;22185;48.738;9.324;2022-08-11T02:52:46;16.50;99.90
36132;DHT22;22185;48.738;9.324;2022-08-11T02:57:19;16.50;99.90
36132;DHT22;22185;48.738;9.324;2022-08-11T02:59:25;16.30;99.90
36132;DHT22;22185;48.738;9.324;2022-08-11T03:09:57;16.20;99.90
36132;DHT22;22185;48.738;9.324;2022-08-11T03:12:18;16.30;99.90
36132;DHT22;22185;48.738;9.324;2022-08-11T03:14:57;16.30;99.90
36132;DHT22;22185;48.738;9.324;2022-08-11T03:17:29;16.30;99.90
36132;DHT22;22185;48.738;9.324;2022-08-11T03:21:55;16.20;99.90
36132;DHT22;22185;48.738;9.324;2022-08-11T03:24:30;16.20;99.90
36132;DHT22;22185;48.738;9.324;2022-08-11T03:29:15;16.20;99.90
36132;DHT22;22185;48.738;9.324;2022-08-11T03:33:38;16.20;99.90
36132;DHT22;22185;48.738;9.324;2022-08-11T03:36:22;16.10;99.90
36132;DHT22;22185;48.738;9.324;2022-08-11T03:38:29;16.00;99.90
36132;DHT22;22185;48.738;9.324;2022-08-11T03:40:48;16.00;99.90
36132;DHT22;22185;48.738;9.324;2022-08-11T03:43:53;15.90;99.90
36132;DHT22;22185;48.738;9.324;2022-08-11T03:46:09;15.90;99.90
36132;DHT22;22185;48.738;9.324;2022-08-11T03:48:19;15.90;99.90
36132;DHT22;22185;48.738;9.324;2022-08-11T03:50:46;15.90;99.90
36132;DHT22;22185;48.738;9.324;2022-08-11T04:00:37;15.90;99.90
36132;DHT22;22185;48.738;9.324;2022-08-11T04:04:19;15.90;99.90
36132;DHT22;22185;48.738;9.324;2022-08-11T04:12:37;15.90;99.90
36132;DHT22;22185;48.738;9.324;2022-08-11T04:22:37;15.90;99.90
36132;DHT22;22185;48.738;9.324;2022-08-11T04:34:50;15.90;99.90
36132;DHT22;22185;48.738;9.324;2022-08-11T04:39:46;15.80;99.90
36132;DHT22;22185;48.738;9.324;2022-08-11T04:47:56;15.80;99.90
36132;DHT22;22185;48.738;9.324;2022-08-11T04:50:47;15.80;99.90
36132;DHT22;22185;48.738;9.324;2022-08-11T04:53:25;15.80;99.90
36132;DHT22;22185;48.738;9.324;2022-08-11T04:56:16;15.80;99.90
36132;DHT22;22185;48.738;9.324;2022-08-11T05:13:32;15.90;99.90
36132;DHT22;22185;48.738;9.324;2022-08-11T05:16:08;15.90;99.90
36132;DHT22;22185;48.738;9.324;2022-08-11T05:18:30;16.00;99.90
36132;DHT22;22185;48.738;9.324;2022-08-11T05:20:55;16.00;99.90
36132;DHT22;22185;48.738;9.324;2022-08-11T05:23:18;16.00;99.90
36132;DHT22;22185;48.738;9.324;2022-08-11T05:25:44;15.90;99.90
36132;DHT22;22185;48.738;9.324;2022-08-11T05:28:55;16.00;99.90
36132;DHT22;22185;48.738;9.324;2022-08-11T05:31:30;16.00;99.90
36132;DHT22;22185;48.738;9.324;2022-08-11T05:33:57;16.10;99.90
36132;DHT22;22185;48.738;9.324;2022-08-11T05:38:57;16.30;99.90
36132;DHT22;22185;48.738;9.324;2022-08-11T05:41:21;16.30;99.90
36132;DHT22;22185;48.738;9.324;2022-08-11T05:43:43;16.40;99.90
36132;DHT22;22185;48.738;9.324;2022-08-11T05:46:23;16.40;99.90
36132;DHT22;22185;48.738;9.324;2022-08-11T05:48:46;16.50;99.90
36132;DHT22;22185;48.738;9.324;2022-08-11T05:51:07;16.50;99.90
36132;DHT22;22185;48.738;9.324;2022-08-11T05:53:31;16.50;99.90
36132;DHT22;22185;48.738;9.324;2022-08-11T05:55:53;16.60;99.90
36132;DHT22;22185;48.738;9.324;2022-08-11T05:58:13;16.70;99.90
36132;DHT22;22185;48.738;9.324;2022-08-11T06:00:16;16.70;99.90
36132;DHT22;22185;48.738;9.324;2022-08-11T06:02:19;16.70;99.90
36132;DHT22;22185;48.738;9.324;2022-08-11T06:04:23;16.80;99.90
36132;DHT22;22185;48.738;9.324;2022-08-11T06:06:26;16.90;99.90
36132;DHT22;22185;48.738;9.324;2022-08-11T06:08:33;16.90;99.90
36132;DHT22;22185;48.738;9.324;2022-08-11T06:10:44;17.00;99.90
36132;DHT22;22185;48.738;9.324;2022-08-11T06:12:52;17.10;99.90
36132;DHT22;22185;48.738;9.324;2022-08-11T06:15:13;17.20;99.90
36132;DHT22;22185;48.738;9.324;2022-08-11T06:17:23;17.20;99.90
36132;DHT22;22185;48.738;9.324;2022-08-11T06:19:38;17.30;99.90
36132;DHT22;22185;48.738;9.324;2022-08-11T06:21:44;17.40;99.90
36132;DHT22;22185;48.738;9.324;2022-08-11T06:23:48;17.40;99.90
36132;DHT22;22185;48.738;9.324;2022-08-11T06:25:54;17.50;99.90
36132;DHT22;22185;48.738;9.324;2022-08-11T06:28:06;17.60;99.90
36132;DHT22;22185;48.738;9.324;2022-08-11T06:30:12;17.70;99.90
36132;DHT22;22185;48.738;9.324;2022-08-11T06:32:15;17.70;99.90
36132;DHT22;22185;48.738;9.324;2022-08-11T06:39:38;18.00;99.90
36132;DHT22;22185;48.738;9.324;2022-08-11T06:42:07;18.00;99.90
36132;DHT22;22185;48.738;9.324;2022-08-11T06:46:17;18.20;99.90
36132;DHT22;22185;48.738;9.324;2022-08-11T06:48:31;18.20;99.90
36132;DHT22;22185;48.738;9.324;2022-08-11T06:50:33;18.30;99.90
36132;DHT22;22185;48.738;9.324;2022-08-11T06:52:54;18.40;99.90
36132;DHT22;22185;48.738;9.324;2022-08-11T06:55:00;18.50;99.90
36132;DHT22;22185;48.738;9.324;2022-08-11T06:57:12;18.70;99.90
36132;DHT22;22185;48.738;9.324;2022-08-11T06:59:34;19.00;99.90
36132;DHT22;22185;48.738;9.324;2022-08-11T07:04:09;19.20;99.90
36132;DHT22;22185;48.738;9.324;2022-08-11T07:06:35;19.30;99.90
36132;DHT22;22185;48.738;9.324;2022-08-11T07:14:15;20.00;99.90
36132;DHT22;22185;48.738;9.324;2022-08-11T07:16:41;20.10;99.90
36132;DHT22;22185;48.738;9.324;2022-08-11T07:18:45;20.30;99.90
36132;DHT22;22185;48.738;9.324;2022-08-11T07:21:33;20.40;99.90
36132;DHT22;22185;48.738;9.324;2022-08-11T07:24:10;20.50;99.90
36132;DHT22;22185;48.738;9.324;2022-08-11T07:26:54;20.60;99.90
36132;DHT22;22185;48.738;9.324;2022-08-11T07:29:15;20.80;99.90
36132;DHT22;22185;48.738;9.324;2022-08-11T07:33:31;21.10;99.90
36132;DHT22;22185;48.738;9.324;2022-08-11T07:35:58;21.30;99.90
36132;DHT22;22185;48.738;9.324;2022-08-11T07:38:05;21.40;99.90
36132;DHT22;22185;48.738;9.324;2022-08-11T07:40:09;21.40;99.90
36132;DHT22;22185;48.738;9.324;2022-08-11T07:42:14;21.50;99.90
36132;DHT22;22185;48.738;9.324;2022-08-11T07:44:16;21.50;99.90
36132;DHT22;22185;48.738;9.324;2022-08-11T07:46:19;21.50;99.90
36132;DHT22;22185;48.738;9.324;2022-08-11T07:48:40;21.70;99.90
36132;DHT22;22185;48.738;9.324;2022-08-11T07:51:02;21.80;99.90
36132;DHT22;22185;48.738;9.324;2022-08-11T07:53:22;21.80;99.90
36132;DHT22;22185;48.738;9.324;2022-08-11T07:55:25;21.90;99.90
36132;DHT22;22185;48.738;9.324;2022-08-11T07:57:48;22.10;99.90
36132;DHT22;22185;48.738;9.324;2022-08-11T08:00:20;22.20;99.90
36132;DHT22;22185;48.738;9.324;2022-08-11T08:02:42;22.50;99.90
36132;DHT22;22185;48.738;9.324;2022-08-11T08:05:05;22.20;99.90
36132;DHT22;22185;48.738;9.324;2022-08-11T08:07:26;22.40;99.90
36132;DHT22;22185;48.738;9.324;2022-08-11T08:09:49;22.40;99.90
36132;DHT22;22185;48.738;9.324;2022-08-11T08:12:15;22.50;99.90
36132;DHT22;22185;48.738;9.324;2022-08-11T08:14:36;22.60;99.90
36132;DHT22;22185;48.738;9.324;2022-08-11T08:16:56;22.70;99.90
36132;DHT22;22185;48.738;9.324;2022-08-11T08:19:19;22.90;99.90
36132;DHT22;22185;48.738;9.324;2022-08-11T08:21:21;23.00;99.90
36132;DHT22;22185;48.738;9.324;2022-08-11T08:23:25;23.10;99.90
36132;DHT22;22185;48.738;9.324;2022-08-11T08:25:38;23.10;99.90
36132;DHT22;22185;48.738;9.324;2022-08-11T08:27:41;23.20;99.90
36132;DHT22;22185;48.738;9.324;2022-08-11T08:29:44;23.30;99.90
36132;DHT22;22185;48.738;9.324;2022-08-11T08:32:06;23.50;99.90
36132;DHT22;22185;48.738;9.324;2022-08-11T08:34:10;23.40;99.90
36132;DHT22;22185;48.738;9.324;2022-08-11T08:36:12;23.40;99.90
36132;DHT22;22185;48.738;9.324;2022-08-11T08:38:18;23.40;99.90
36132;DHT22;22185;48.738;9.324;2022-08-11T08:40:20;23.40;99.90
36132;DHT22;22185;48.738;9.324;2022-08-11T08:42:26;23.60;99.90
36132;DHT22;22185;48.738;9.324;2022-08-11T08:44:31;23.70;99.90
36132;DHT22;22185;48.738;9.324;2022-08-11T08:46:48;23.60;99.90
36132;DHT22;22185;48.738;9.324;2022-08-11T08:48:51;23.60;99.90
36132;DHT22;22185;48.738;9.324;2022-08-11T08:51:02;23.60;99.90
36132;DHT22;22185;48.738;9.324;2022-08-11T08:53:26;24.10;99.90
36132;DHT22;22185;48.738;9.324;2022-08-11T08:55:33;24.30;99.90
36132;DHT22;22185;48.738;9.324;2022-08-11T08:57:36;24.30;99.90
36132;DHT22;22185;48.738;9.324;2022-08-11T08:59:43;24.20;99.90
36132;DHT22;22185;48.738;9.324;2022-08-11T09:02:01;24.40;99.70
36132;DHT22;22185;48.738;9.324;2022-08-11T09:04:06;24.50;99.90
36132;DHT22;22185;48.738;9.324;2022-08-11T09:06:18;24.40;99.90
36132;DHT22;22185;48.738;9.324;2022-08-11T09:08:23;24.30;99.90
36132;DHT22;22185;48.738;9.324;2022-08-11T09:10:26;24.30;99.50
36132;DHT22;22185;48.738;9.324;2022-08-11T09:12:33;24.50;99.00
36132;DHT22;22185;48.738;9.324;2022-08-11T09:14:42;24.50;99.90
36132;DHT22;22185;48.738;9.324;2022-08-11T09:17:01;24.70;98.80
36132;DHT22;22185;48.738;9.324;2022-08-11T09:19:03;24.80;97.00
36132;DHT22;22185;48.738;9.324;2022-08-11T09:21:05;24.90;96.50
36132;DHT22;22185;48.738;9.324;2022-08-11T09:23:10;25.10;95.10
36132;DHT22;22185;48.738;9.324;2022-08-11T09:25:58;25.20;95.20
36132;DHT22;22185;48.738;9.324;2022-08-11T09:28:20;25.20;95.90
36132;DHT22;22185;48.738;9.324;2022-08-11T09:30:24;25.10;96.30
36132;DHT22;22185;48.738;9.324;2022-08-11T09:32:26;25.00;95.90
36132;DHT22;22185;48.738;9.324;2022-08-11T09:34:30;25.20;95.30
36132;DHT22;22185;48.738;9.324;2022-08-11T09:36:32;25.40;96.10
36132;DHT22;22185;48.738;9.324;2022-08-11T09:38:53;25.40;94.90
36132;DHT22;22185;48.738;9.324;2022-08-11T09:41:13;25.60;94.00
36132;DHT22;22185;48.738;9.324;2022-08-11T09:43:44;25.60;94.00
36132;DHT22;22185;48.738;9.324;2022-08-11T09:46:05;25.70;93.40
36132;DHT22;22185;48.738;9.324;2022-08-11T09:48:14;25.60;92.30
36132;DHT22;22185;48.738;9.324;2022-08-11T09:50:18;25.80;92.20
36132;DHT22;22185;48.738;9.324;2022-08-11T09:52:23;25.70;92.90
36132;DHT22;22185;48.738;9.324;2022-08-11T09:54:26;25.80;91.30
36132;DHT22;22185;48.738;9.324;2022-08-11T09:56:28;26.00;91.70
36132;DHT22;22185;48.738;9.324;2022-08-11T09:58:49;26.30;91.00
36132;DHT22;22185;48.738;9.324;2022-08-11T10:00:55;26.40;91.60
36132;DHT22;22185;48.738;9.324;2022-08-11T10:02:58;26.20;92.20
36132;DHT22;22185;48.738;9.324;2022-08-11T10:05:03;26.30;91.30
36132;DHT22;22185;48.738;9.324;2022-08-11T10:07:24;26.50;88.40
36132;DHT22;22185;48.738;9.324;2022-08-11T10:09:34;26.50;87.70
36132;DHT22;22185;48.738;9.324;2022-08-11T10:11:39;26.50;88.90
36132;DHT22;22185;48.738;9.324;2022-08-11T10:13:44;26.80;87.60
36132;DHT22;22185;48.738;9.324;2022-08-11T10:16:31;26.90;87.70
36132;DHT22;22185;48.738;9.324;2022-08-11T10:18:39;26.70;90.90
36132;DHT22;22185;48.738;9.324;2022-08-11T10:20:57;26.60;90.00
36132;DHT22;22185;48.738;9.324;2022-08-11T10:23:03;26.90;90.50
36132;DHT22;22185;48.738;9.324;2022-08-11T10:25:24;27.10;86.50
36132;DHT22;22185;48.738;9.324;2022-08-11T10:27:45;27.50;88.20
36132;DHT22;22185;48.738;9.324;2022-08-11T10:30:10;27.60;85.30
36132;DHT22;22185;48.738;9.324;2022-08-11T10:32:31;27.80;85.50
36132;DHT22;22185;48.738;9.324;2022-08-11T10:35:01;28.40;83.80
36132;DHT22;22185;48.738;9.324;2022-08-11T10:37:03;28.50;82.50
36132;DHT22;22185;48.738;9.324;2022-08-11T10:39:20;28.90;80.60
36132;DHT22;22185;48.738;9.324;2022-08-11T10:41:23;29.40;86.00
36132;DHT22;22185;48.738;9.324;2022-08-11T10:44:08;29.50;83.50
36132;DHT22;22185;48.738;9.324;2022-08-11T10:46:11;29.60;80.30
36132;DHT22;22185;48.738;9.324;2022-08-11T10:48:36;29.70;76.50
36132;DHT22;22185;48.738;9.324;2022-08-11T10:50:44;29.60;80.20
36132;DHT22;22185;48.738;9.324;2022-08-11T10:53:06;29.60;77.00
36132;DHT22;22185;48.738;9.324;2022-08-11T10:55:27;30.10;78.60
36132;DHT22;22185;48.738;9.324;2022-08-11T10:57:48;30.20;75.20
36132;DHT22;22185;48.738;9.324;2022-08-11T11:00:10;30.30;75.40
36132;DHT22;22185;48.738;9.324;2022-08-11T11:02:15;30.50;77.60
36132;DHT22;22185;48.738;9.324;2022-08-11T11:04:23;30.60;76.70
36132;DHT22;22185;48.738;9.324;2022-08-11T11:08:49;30.70;70.60
36132;DHT22;22185;48.738;9.324;2022-08-11T11:11:01;30.90;70.50
36132;DHT22;22185;48.738;9.324;2022-08-11T11:13:05;31.20;73.80
36132;DHT22;22185;48.738;9.324;2022-08-11T11:15:28;31.60;70.90
36132;DHT22;22185;48.738;9.324;2022-08-11T11:20:16;31.90;69.00
36132;DHT22;22185;48.738;9.324;2022-08-11T11:22:42;32.20;67.70
36132;DHT22;22185;48.738;9.324;2022-08-11T11:27:46;32.20;64.30
36132;DHT22;22185;48.738;9.324;2022-08-11T11:30:09;32.60;78.50
36132;DHT22;22185;48.738;9.324;2022-08-11T11:35:24;32.60;62.90
36132;DHT22;22185;48.738;9.324;2022-08-11T11:37:31;32.70;64.30
36132;DHT22;22185;48.738;9.324;2022-08-11T11:39:37;33.30;66.00
36132;DHT22;22185;48.738;9.324;2022-08-11T11:41:43;33.40;58.10
36132;DHT22;22185;48.738;9.324;2022-08-11T11:43:46;33.80;64.10
36132;DHT22;22185;48.738;9.324;2022-08-11T11:45:48;33.60;64.80
36132;DHT22;22185;48.738;9.324;2022-08-11T11:47:52;33.30;63.50
36132;DHT22;22185;48.738;9.324;2022-08-11T11:49:55;33.60;60.60
36132;DHT22;22185;48.738;9.324;2022-08-11T11:51:58;34.30;66.70
36132;DHT22;22185;48.738;9.324;2022-08-11T11:54:02;34.80;58.40
36132;DHT22;22185;48.738;9.324;2022-08-11T11:56:06;34.90;56.20
36132;DHT22;22185;48.738;9.324;2022-08-11T11:58:08;34.70;55.50
36132;DHT22;22185;48.738;9.324;2022-08-11T12:00:31;34.80;56.70
36132;DHT22;22185;48.738;9.324;2022-08-11T12:02:55;34.90;57.60
36132;DHT22;22185;48.738;9.324;2022-08-11T12:04:59;35.10;55.70
36132;DHT22;22185;48.738;9.324;2022-08-11T12:07:03;35.90;60.50
36132;DHT22;22185;48.738;9.324;2022-08-11T12:09:24;36.40;58.80
36132;DHT22;22185;48.738;9.324;2022-08-11T12:11:28;36.00;50.70
36132;DHT22;22185;48.738;9.324;2022-08-11T12:13:51;35.90;53.20
36132;DHT22;22185;48.738;9.324;2022-08-11T12:15:54;36.40;56.20
36132;DHT22;22185;48.738;9.324;2022-08-11T12:18:17;37.50;50.20
36132;DHT22;22185;48.738;9.324;2022-08-11T12:20:19;36.90;47.20
36132;DHT22;22185;48.738;9.324;2022-08-11T12:22:34;37.40;48.70
36132;DHT22;22185;48.738;9.324;2022-08-11T12:24:57;37.80;50.70
36132;DHT22;22185;48.738;9.324;2022-08-11T12:27:18;37.50;46.50
36132;DHT22;22185;48.738;9.324;2022-08-11T12:29:29;37.50;52.80
36132;DHT22;22185;48.738;9.324;2022-08-11T12:31:33;38.60;51.70
36132;DHT22;22185;48.738;9.324;2022-08-11T12:33:39;38.90;47.90
36132;DHT22;22185;48.738;9.324;2022-08-11T12:35:42;38.50;48.10
36132;DHT22;22185;48.738;9.324;2022-08-11T12:38:02;39.10;54.00
36132;DHT22;22185;48.738;9.324;2022-08-11T12:40:30;38.90;48.70
36132;DHT22;22185;48.738;9.324;2022-08-11T12:43:15;37.10;44.30
36132;DHT22;22185;48.738;9.324;2022-08-11T12:45:40;36.60;51.30
36132;DHT22;22185;48.738;9.324;2022-08-11T12:47:49;38.70;49.00
36132;DHT22;22185;48.738;9.324;2022-08-11T12:50:33;39.70;44.70
36132;DHT22;22185;48.738;9.324;2022-08-11T12:52:54;39.50;45.00
36132;DHT22;22185;48.738;9.324;2022-08-11T12:57:17;39.80;47.90
36132;DHT22;22185;48.738;9.324;2022-08-11T12:59:39;39.70;43.60
36132;DHT22;22185;48.738;9.324;2022-08-11T13:02:02;40.10;46.50
36132;DHT22;22185;48.738;9.324;2022-08-11T13:04:25;40.10;44.30
36132;DHT22;22185;48.738;9.324;2022-08-11T13:06:51;39.00;41.60
36132;DHT22;22185;48.738;9.324;2022-08-11T13:08:54;39.50;46.90
36132;DHT22;22185;48.738;9.324;2022-08-11T13:11:02;39.30;43.10
36132;DHT22;22185;48.738;9.324;2022-08-11T13:13:23;38.30;51.60
36132;DHT22;22185;48.738;9.324;2022-08-11T13:15:47;38.70;42.80
36132;DHT22;22185;48.738;9.324;2022-08-11T13:17:52;38.80;41.40
36132;DHT22;22185;48.738;9.324;2022-08-11T13:19:58;38.70;45.80
36132;DHT22;22185;48.738;9.324;2022-08-11T13:22:02;38.70;42.30
36132;DHT22;22185;48.738;9.324;2022-08-11T13:24:08;39.10;45.70
36132;DHT22;22185;48.738;9.324;2022-08-11T13:26:10;38.00;48.60
36132;DHT22;22185;48.738;9.324;2022-08-11T13:28:12;37.80;44.50
36132;DHT22;22185;48.738;9.324;2022-08-11T13:30:15;37.90;44.00
36132;DHT22;22185;48.738;9.324;2022-08-11T13:32:44;37.90;49.60
36132;DHT22;22185;48.738;9.324;2022-08-11T13:34:48;39.10;46.40
36132;DHT22;22185;48.738;9.324;2022-08-11T13:36:52;39.60;51.00
36132;DHT22;22185;48.738;9.324;2022-08-11T13:38:55;39.70;45.00
36132;DHT22;22185;48.738;9.324;2022-08-11T13:40:59;39.30;40.80
36132;DHT22;22185;48.738;9.324;2022-08-11T13:43:01;38.80;47.90
36132;DHT22;22185;48.738;9.324;2022-08-11T13:45:05;38.10;41.40
36132;DHT22;22185;48.738;9.324;2022-08-11T13:47:11;37.30;42.30
36132;DHT22;22185;48.738;9.324;2022-08-11T13:49:16;36.90;43.40
36132;DHT22;22185;48.738;9.324;2022-08-11T13:51:18;37.80;43.70
36132;DHT22;22185;48.738;9.324;2022-08-11T13:53:37;38.50;42.80
36132;DHT22;22185;48.738;9.324;2022-08-11T13:55:40;38.30;42.70
36132;DHT22;22185;48.738;9.324;2022-08-11T13:57:52;36.40;42.60
36132;DHT22;22185;48.738;9.324;2022-08-11T14:00:15;37.00;43.80
36132;DHT22;22185;48.738;9.324;2022-08-11T14:02:29;36.90;44.90
36132;DHT22;22185;48.738;9.324;2022-08-11T14:04:47;36.50;48.00
36132;DHT22;22185;48.738;9.324;2022-08-11T14:06:53;35.60;53.30
36132;DHT22;22185;48.738;9.324;2022-08-11T14:08:55;35.40;46.00
36132;DHT22;22185;48.738;9.324;2022-08-11T14:11:01;34.40;48.30
36132;DHT22;22185;48.738;9.324;2022-08-11T14:13:42;34.60;58.00
36132;DHT22;22185;48.738;9.324;2022-08-11T14:15:49;34.80;51.60
36132;DHT22;22185;48.738;9.324;2022-08-11T14:18:04;34.70;53.30
36132;DHT22;22185;48.738;9.324;2022-08-11T14:20:08;34.90;47.10
36132;DHT22;22185;48.738;9.324;2022-08-11T14:22:31;34.00;45.30
36132;DHT22;22185;48.738;9.324;2022-08-11T14:24:39;32.90;46.00
36132;DHT22;22185;48.738;9.324;2022-08-11T14:26:41;33.40;47.90
36132;DHT22;22185;48.738;9.324;2022-08-11T14:28:46;33.90;47.50
36132;DHT22;22185;48.738;9.324;2022-08-11T14:30:48;34.30;47.80
36132;DHT22;22185;48.738;9.324;2022-08-11T14:33:02;34.40;46.60
36132;DHT22;22185;48.738;9.324;2022-08-11T14:35:20;33.90;47.30
36132;DHT22;22185;48.738;9.324;2022-08-11T14:37:26;34.10;54.80
36132;DHT22;22185;48.738;9.324;2022-08-11T14:39:52;34.30;49.60
36132;DHT22;22185;48.738;9.324;2022-08-11T14:42:05;34.70;51.40
36132;DHT22;22185;48.738;9.324;2022-08-11T14:44:26;35.10;52.20
36132;DHT22;22185;48.738;9.324;2022-08-11T14:46:48;35.20;45.90
36132;DHT22;22185;48.738;9.324;2022-08-11T14:49:27;35.00;51.50
36132;DHT22;22185;48.738;9.324;2022-08-11T14:51:29;35.20;49.90
36132;DHT22;22185;48.738;9.324;2022-08-11T14:53:32;35.30;53.00
36132;DHT22;22185;48.738;9.324;2022-08-11T14:55:41;34.90;43.90
36132;DHT22;22185;48.738;9.324;2022-08-11T14:58:04;35.10;45.30
36132;DHT22;22185;48.738;9.324;2022-08-11T15:00:12;35.50;54.40
36132;DHT22;22185;48.738;9.324;2022-08-11T15:02:18;35.60;45.00
36132;DHT22;22185;48.738;9.324;2022-08-11T15:04:38;35.40;44.70
36132;DHT22;22185;48.738;9.324;2022-08-11T15:06:40;35.90;50.70
36132;DHT22;22185;48.738;9.324;2022-08-11T15:08:43;37.40;45.90
36132;DHT22;22185;48.738;9.324;2022-08-11T15:10:57;37.60;42.30
36132;DHT22;22185;48.738;9.324;2022-08-11T15:12:59;37.90;48.70
36132;DHT22;22185;48.738;9.324;2022-08-11T15:15:05;39.10;41.50
36132;DHT22;22185;48.738;9.324;2022-08-11T15:17:26;40.20;46.40
36132;DHT22;22185;48.738;9.324;2022-08-11T15:19:44;40.30;41.80
36132;DHT22;22185;48.738;9.324;2022-08-11T15:22:05;39.60;39.40
36132;DHT22;22185;48.738;9.324;2022-08-11T15:24:45;40.10;43.10
36132;DHT22;22185;48.738;9.324;2022-08-11T15:26:49;39.60;42.20
36132;DHT22;22185;48.738;9.324;2022-08-11T15:29:11;40.60;39.00
36132;DHT22;22185;48.738;9.324;2022-08-11T15:31:35;40.50;45.60
36132;DHT22;22185;48.738;9.324;2022-08-11T15:34:03;39.10;42.00
36132;DHT22;22185;48.738;9.324;2022-08-11T15:36:25;40.00;43.40
36132;DHT22;22185;48.738;9.324;2022-08-11T15:39:18;40.40;43.50
36132;DHT22;22185;48.738;9.324;2022-08-11T15:41:35;39.60;45.70
36132;DHT22;22185;48.738;9.324;2022-08-11T15:44:01;39.80;46.30
36132;DHT22;22185;48.738;9.324;2022-08-11T15:46:48;39.80;46.20
36132;DHT22;22185;48.738;9.324;2022-08-11T15:51:56;41.00;38.00
36132;DHT22;22185;48.738;9.324;2022-08-11T15:54:09;41.00;37.40
36132;DHT22;22185;48.738;9.324;2022-08-11T15:56:14;41.10;38.00
36132;DHT22;22185;48.738;9.324;2022-08-11T15:58:20;40.60;43.90
36132;DHT22;22185;48.738;9.324;2022-08-11T16:00:44;41.20;50.40
36132;DHT22;22185;48.738;9.324;2022-08-11T16:03:11;41.30;37.50
36132;DHT22;22185;48.738;9.324;2022-08-11T16:05:53;41.00;38.60
36132;DHT22;22185;48.738;9.324;2022-08-11T16:07:57;40.10;38.50
36132;DHT22;22185;48.738;9.324;2022-08-11T16:10:06;39.80;40.10
36132;DHT22;22185;48.738;9.324;2022-08-11T16:12:15;39.30;40.60
36132;DHT22;22185;48.738;9.324;2022-08-11T16:14:18;39.50;40.70
36132;DHT22;22185;48.738;9.324;2022-08-11T16:16:41;38.10;41.40
36132;DHT22;22185;48.738;9.324;2022-08-11T16:18:51;38.00;44.50
36132;DHT22;22185;48.738;9.324;2022-08-11T16:21:01;38.30;42.30
36132;DHT22;22185;48.738;9.324;2022-08-11T16:23:32;37.00;42.00
36132;DHT22;22185;48.738;9.324;2022-08-11T16:25:35;36.10;55.20
36132;DHT22;22185;48.738;9.324;2022-08-11T16:28:03;36.10;48.10
36132;DHT22;22185;48.738;9.324;2022-08-11T16:30:08;35.00;49.80
36132;DHT22;22185;48.738;9.324;2022-08-11T16:32:17;34.80;47.80
36132;DHT22;22185;48.738;9.324;2022-08-11T16:34:23;34.80;51.60
36132;DHT22;22185;48.738;9.324;2022-08-11T16:36:44;34.60;50.20
36132;DHT22;22185;48.738;9.324;2022-08-11T16:39:06;34.10;48.20
36132;DHT22;22185;48.738;9.324;2022-08-11T16:41:11;33.40;45.90
36132;DHT22;22185;48.738;9.324;2022-08-11T16:43:16;33.30;45.60
36132;DHT22;22185;48.738;9.324;2022-08-11T16:45:39;33.20;49.10
36132;DHT22;22185;48.738;9.324;2022-08-11T16:48:02;33.30;47.80
36132;DHT22;22185;48.738;9.324;2022-08-11T16:50:26;33.30;45.80
36132;DHT22;22185;48.738;9.324;2022-08-11T16:52:30;33.10;46.70
36132;DHT22;22185;48.738;9.324;2022-08-11T16:54:33;33.10;47.20
36132;DHT22;22185;48.738;9.324;2022-08-11T16:56:40;32.80;46.30
36132;DHT22;22185;48.738;9.324;2022-08-11T16:58:54;32.90;47.10
36132;DHT22;22185;48.738;9.324;2022-08-11T17:01:20;33.00;47.20
36132;DHT22;22185;48.738;9.324;2022-08-11T17:03:29;33.20;47.70
36132;DHT22;22185;48.738;9.324;2022-08-11T17:05:59;33.10;49.60
36132;DHT22;22185;48.738;9.324;2022-08-11T17:08:31;32.80;47.00
36132;DHT22;22185;48.738;9.324;2022-08-11T17:11:03;32.80;46.60
36132;DHT22;22185;48.738;9.324;2022-08-11T17:13:40;32.60;51.70
36132;DHT22;22185;48.738;9.324;2022-08-11T17:15:50;32.20;49.50
36132;DHT22;22185;48.738;9.324;2022-08-11T17:18:13;31.90;48.80
36132;DHT22;22185;48.738;9.324;2022-08-11T17:20:44;31.30;49.50
36132;DHT22;22185;48.738;9.324;2022-08-11T17:22:47;30.80;49.20
36132;DHT22;22185;48.738;9.324;2022-08-11T17:25:15;30.60;53.20
36132;DHT22;22185;48.738;9.324;2022-08-11T17:27:18;30.40;53.50
36132;DHT22;22185;48.738;9.324;2022-08-11T17:31:56;30.10;51.00
36132;DHT22;22185;48.738;9.324;2022-08-11T17:34:28;29.90;54.20